createdAt,value
2022-12-22T00:00:13.283Z,15.6
2022-12-22T00:01:21.649Z,15.6
2022-12-22T00:02:30.310Z,14.5
2022-12-22T00:03:38.674Z,14.5
2022-12-22T00:04:46.912Z,14.5
2022-12-22T00:05:55.465Z,17.6
2022-12-22T00:07:03.838Z,17.6
2022-12-22T00:08:12.171Z,17.6
2022-12-22T00:09:20.716Z,16.200001
2022-12-22T00:10:29.065Z,16.200001
2022-12-22T00:11:37.419Z,16.200001
2022-12-22T00:12:45.986Z,17.1
2022-12-22T00:13:54.337Z,17.1
2022-12-22T00:15:02.674Z,17.1
2022-12-22T00:16:11.360Z,13.8
2022-12-22T00:17:19.621Z,13.8
2022-12-22T00:18:27.968Z,13.8
2022-12-22T00:19:36.528Z,9.9
2022-12-22T00:20:44.876Z,9.9
2022-12-22T00:21:53.251Z,9.9
2022-12-22T00:23:01.824Z,9.5
2022-12-22T00:24:10.137Z,9.5
2022-12-22T00:25:18.506Z,9.5
2022-12-22T00:26:27.066Z,7.8
2022-12-22T00:27:35.399Z,7.8
2022-12-22T00:28:43.767Z,7.8
2022-12-22T00:29:52.309Z,8
2022-12-22T00:31:00.747Z,8
2022-12-22T00:32:09.054Z,8
2022-12-22T00:33:17.602Z,6.6
2022-12-22T00:34:30.913Z,6.6
2022-12-22T00:35:34.299Z,6.6
2022-12-22T00:36:42.872Z,6.6
2022-12-22T00:37:51.203Z,6.6
2022-12-22T00:38:59.575Z,6.6
2022-12-22T00:40:08.107Z,6.6
2022-12-22T00:41:16.488Z,6.6
2022-12-22T00:42:24.846Z,6.6
2022-12-22T00:43:33.403Z,6.2
2022-12-22T00:44:41.742Z,6.2
2022-12-22T00:45:50.129Z,6.2
2022-12-22T00:46:58.676Z,6.6
2022-12-22T00:48:06.993Z,6.6
2022-12-22T00:49:15.333Z,6.6
2022-12-22T00:50:23.895Z,7.1
2022-12-22T00:51:32.256Z,7.1
2022-12-22T00:52:40.628Z,7.1
2022-12-22T00:53:49.186Z,8.8
2022-12-22T00:54:57.551Z,8.8
2022-12-22T00:56:05.878Z,8.8
2022-12-22T00:57:14.431Z,7.6
2022-12-22T00:58:22.783Z,7.6
2022-12-22T00:59:31.153Z,7.6
2022-12-22T01:00:39.683Z,8.3
2022-12-22T01:01:48.085Z,8.3
2022-12-22T01:02:56.538Z,8.3
2022-12-22T01:04:04.942Z,10.1
2022-12-22T01:05:13.289Z,10.1
2022-12-22T01:06:21.652Z,10.1
2022-12-22T01:07:30.188Z,9.7
2022-12-22T01:08:38.565Z,9.7
2022-12-22T01:09:46.903Z,9.7
2022-12-22T01:10:55.460Z,10.4
2022-12-22T01:12:03.784Z,10.4
2022-12-22T01:13:12.142Z,10.4
2022-12-22T01:14:20.689Z,10.6
2022-12-22T01:15:29.018Z,10.6
2022-12-22T01:16:37.481Z,10.6
2022-12-22T01:17:45.915Z,9.9
2022-12-22T01:18:54.261Z,9.9
2022-12-22T01:20:02.630Z,9.9
2022-12-22T01:21:11.177Z,8.1
2022-12-22T01:22:19.518Z,8.1
2022-12-22T01:23:27.866Z,8.1
2022-12-22T01:24:36.429Z,7.7
2022-12-22T01:25:44.765Z,7.7
2022-12-22T01:26:53.146Z,7.7
2022-12-22T01:28:01.691Z,6.9
2022-12-22T01:29:10.039Z,6.9
2022-12-22T01:30:18.374Z,6.9
2022-12-22T01:31:26.994Z,7.7
2022-12-22T01:32:35.305Z,7.7
2022-12-22T01:33:43.624Z,7.7
2022-12-22T01:34:52.178Z,8.5
2022-12-22T01:36:00.544Z,8.5
2022-12-22T01:37:08.866Z,8.5
2022-12-22T01:38:17.418Z,7.6
2022-12-22T01:39:25.777Z,7.6
2022-12-22T01:40:34.098Z,7.6
2022-12-22T01:41:42.668Z,7.4
2022-12-22T01:42:51.046Z,7.4
2022-12-22T01:43:59.368Z,7.4
2022-12-22T01:45:07.915Z,7.3
2022-12-22T01:46:16.297Z,7.3
2022-12-22T01:47:24.615Z,7.3
2022-12-22T01:48:33.159Z,6.3
2022-12-22T01:49:41.507Z,6.3
2022-12-22T01:50:49.835Z,6.3
2022-12-22T01:51:58.420Z,6.4
2022-12-22T01:53:06.753Z,6.4
2022-12-22T01:54:15.086Z,6.4
2022-12-22T01:55:23.664Z,5.6
2022-12-22T01:56:32.001Z,5.6
2022-12-22T01:57:40.328Z,5.6
2022-12-22T01:58:48.911Z,5.9
2022-12-22T01:59:57.326Z,5.9
2022-12-22T02:01:05.669Z,5.9
2022-12-22T02:02:14.346Z,4.6
2022-12-22T02:03:22.553Z,4.6
2022-12-22T02:04:30.825Z,4.6
2022-12-22T02:05:39.368Z,6.3
2022-12-22T02:06:47.723Z,6.3
2022-12-22T02:07:56.076Z,6.3
2022-12-22T02:09:04.616Z,7
2022-12-22T02:10:12.980Z,7
2022-12-22T02:11:21.311Z,7
2022-12-22T02:12:29.853Z,7.2
2022-12-22T02:13:38.207Z,7.2
2022-12-22T02:14:46.565Z,7.2
2022-12-22T02:15:55.151Z,8.2
2022-12-22T02:17:03.428Z,8.2
2022-12-22T02:18:11.770Z,8.2
2022-12-22T02:19:20.354Z,9.2
2022-12-22T02:20:28.678Z,9.2
2022-12-22T02:21:37.027Z,9.2
2022-12-22T02:22:45.596Z,9.5
2022-12-22T02:23:53.923Z,9.5
2022-12-22T02:25:02.312Z,9.5
2022-12-22T02:26:10.819Z,10
2022-12-22T02:27:19.160Z,10
2022-12-22T02:28:27.569Z,10
2022-12-22T02:29:36.070Z,9.3
2022-12-22T02:30:44.441Z,9.3
2022-12-22T02:31:52.764Z,9.3
2022-12-22T02:33:07.201Z,10.1
2022-12-22T02:34:09.648Z,10.1
2022-12-22T02:35:18.019Z,10.1
2022-12-22T02:36:26.565Z,9.8
2022-12-22T02:37:34.888Z,9.8
2022-12-22T02:38:43.217Z,9.8
2022-12-22T02:39:51.757Z,10.4
2022-12-22T02:41:00.158Z,10.4
2022-12-22T02:42:08.459Z,10.4
2022-12-22T02:43:17.009Z,9.1
2022-12-22T02:44:25.364Z,9.1
2022-12-22T02:45:33.728Z,9.1
2022-12-22T02:46:42.357Z,7.2
2022-12-22T02:47:50.599Z,7.2
2022-12-22T02:48:58.937Z,7.2
2022-12-22T02:50:07.499Z,7.7
2022-12-22T02:51:15.846Z,7.7
2022-12-22T02:52:24.214Z,7.7
2022-12-22T02:53:32.745Z,6.8
2022-12-22T02:54:41.093Z,6.8
2022-12-22T02:55:49.411Z,6.8
2022-12-22T02:56:57.981Z,6.4
2022-12-22T02:58:06.332Z,6.4
2022-12-22T02:59:14.662Z,6.4
2022-12-22T03:00:23.216Z,5.8
2022-12-22T03:01:31.691Z,5.8
2022-12-22T03:02:40.187Z,5.8
2022-12-22T03:03:48.530Z,6.3
2022-12-22T03:04:56.803Z,6.3
2022-12-22T03:06:05.158Z,6.3
2022-12-22T03:07:13.704Z,7
2022-12-22T03:08:22.054Z,7
2022-12-22T03:09:30.378Z,7
2022-12-22T03:10:38.924Z,6.3
2022-12-22T03:11:47.290Z,6.3
2022-12-22T03:12:55.612Z,6.3
2022-12-22T03:14:04.171Z,6.8
2022-12-22T03:15:12.517Z,6.8
2022-12-22T03:16:20.925Z,6.8
2022-12-22T03:17:29.409Z,6.8
2022-12-22T03:18:37.780Z,6.8
2022-12-22T03:19:46.092Z,6.8
2022-12-22T03:20:54.624Z,6.2
2022-12-22T03:22:02.973Z,6.2
2022-12-22T03:23:11.316Z,6.2
2022-12-22T03:24:19.875Z,6.4
2022-12-22T03:25:28.234Z,6.4
2022-12-22T03:26:36.562Z,6.4
2022-12-22T03:27:45.104Z,7.2
2022-12-22T03:28:53.469Z,7.2
2022-12-22T03:30:01.805Z,7.2
2022-12-22T03:31:10.372Z,6.4
2022-12-22T03:32:18.694Z,6.4
2022-12-22T03:33:27.047Z,6.4
2022-12-22T03:34:35.637Z,7.8
2022-12-22T03:35:43.943Z,7.8
2022-12-22T03:36:52.289Z,7.8
2022-12-22T03:38:00.851Z,6.5
2022-12-22T03:39:09.214Z,6.5
2022-12-22T03:40:17.556Z,6.5
2022-12-22T03:41:26.102Z,6.8
2022-12-22T03:42:34.440Z,6.8
2022-12-22T03:43:42.795Z,6.8
2022-12-22T03:44:51.325Z,5.9
2022-12-22T03:45:59.677Z,5.9
2022-12-22T03:47:08.121Z,5.9
2022-12-22T03:48:16.587Z,6.1
2022-12-22T03:49:24.933Z,6.1
2022-12-22T03:50:33.306Z,6.1
2022-12-22T03:51:41.844Z,5.4
2022-12-22T03:52:50.197Z,5.4
2022-12-22T03:53:58.525Z,5.4
2022-12-22T03:55:07.069Z,5.6
2022-12-22T03:56:15.417Z,5.6
2022-12-22T03:57:23.759Z,5.6
2022-12-22T03:58:32.311Z,5.5
2022-12-22T03:59:40.657Z,5.5
2022-12-22T04:00:49.030Z,5.5
2022-12-22T04:01:57.672Z,5.4
2022-12-22T04:03:06.118Z,5.4
2022-12-22T04:04:14.221Z,5.4
2022-12-22T04:05:22.757Z,6
2022-12-22T04:06:31.155Z,6
2022-12-22T04:07:39.463Z,6
2022-12-22T04:08:48.017Z,6
2022-12-22T04:09:56.341Z,6
2022-12-22T04:11:04.676Z,6
2022-12-22T04:12:13.220Z,4.1
2022-12-22T04:13:21.583Z,4.1
2022-12-22T04:14:34.152Z,4.1
2022-12-22T04:15:38.452Z,5.3
2022-12-22T04:16:46.815Z,5.3
2022-12-22T04:17:55.153Z,5.3
2022-12-22T04:19:03.713Z,5.5
2022-12-22T04:20:12.055Z,5.5
2022-12-22T04:21:20.406Z,5.5
2022-12-22T04:22:28.968Z,5.3
2022-12-22T04:23:37.295Z,5.3
2022-12-22T04:24:45.643Z,5.3
2022-12-22T04:25:54.166Z,5.1
2022-12-22T04:27:02.520Z,5.1
2022-12-22T04:28:10.846Z,5.1
2022-12-22T04:29:19.400Z,4.7
2022-12-22T04:30:27.721Z,4.7
2022-12-22T04:31:36.085Z,4.7
2022-12-22T04:32:44.618Z,5.6
2022-12-22T04:33:52.967Z,5.6
2022-12-22T04:35:01.314Z,5.6
2022-12-22T04:36:09.874Z,5.4
2022-12-22T04:37:18.235Z,5.4
2022-12-22T04:38:26.587Z,5.4
2022-12-22T04:39:35.131Z,5.4
2022-12-22T04:40:43.435Z,5.4
2022-12-22T04:41:51.793Z,5.4
2022-12-22T04:43:00.338Z,4.6
2022-12-22T04:44:08.657Z,4.6
2022-12-22T04:45:17.000Z,4.6
2022-12-22T04:46:25.602Z,4.7
2022-12-22T04:47:33.919Z,4.7
2022-12-22T04:48:42.233Z,4.7
2022-12-22T04:49:50.781Z,5.9
2022-12-22T04:50:59.129Z,5.9
2022-12-22T04:52:07.472Z,5.9
2022-12-22T04:53:16.066Z,4.9
2022-12-22T04:54:24.421Z,4.9
2022-12-22T04:55:32.728Z,4.9
2022-12-22T04:56:41.289Z,5.5
2022-12-22T04:57:49.617Z,5.5
2022-12-22T04:58:57.981Z,5.5
2022-12-22T05:00:06.514Z,4.5
2022-12-22T05:01:14.927Z,4.5
2022-12-22T05:02:23.353Z,4.5
2022-12-22T05:03:31.873Z,4.7
2022-12-22T05:04:40.116Z,4.7
2022-12-22T05:05:48.462Z,4.7
2022-12-22T05:06:57.015Z,4
2022-12-22T05:08:05.343Z,4
2022-12-22T05:09:13.750Z,4
2022-12-22T05:10:22.263Z,3.7
2022-12-22T05:11:30.598Z,3.7
2022-12-22T05:12:38.925Z,3.7
2022-12-22T05:13:47.483Z,2.8
2022-12-22T05:14:55.823Z,2.8
2022-12-22T05:16:04.180Z,2.8
2022-12-22T05:17:12.789Z,4.2
2022-12-22T05:18:21.084Z,4.2
2022-12-22T05:19:30.956Z,4.2
2022-12-22T05:20:37.971Z,3.7
2022-12-22T05:21:46.319Z,3.7
2022-12-22T05:22:54.662Z,3.7
2022-12-22T05:24:03.204Z,4.3
2022-12-22T05:25:11.513Z,4.3
2022-12-22T05:26:19.875Z,4.3
2022-12-22T05:27:28.358Z,4.1
2022-12-22T05:28:36.709Z,4.1
2022-12-22T05:29:45.082Z,4.1
2022-12-22T05:30:53.691Z,3.5
2022-12-22T05:32:02.768Z,3.5
2022-12-22T05:33:11.102Z,3.5
2022-12-22T05:34:19.631Z,3.2
2022-12-22T05:35:27.982Z,3.2
2022-12-22T05:36:36.314Z,3.2
2022-12-22T05:37:44.841Z,3
2022-12-22T05:38:53.202Z,3
2022-12-22T05:40:01.547Z,3
2022-12-22T05:41:10.146Z,2.7
2022-12-22T05:42:18.558Z,2.7
2022-12-22T05:43:26.872Z,2.7
2022-12-22T05:44:35.420Z,2.6
2022-12-22T05:45:43.863Z,2.6
2022-12-22T05:46:52.136Z,2.6
2022-12-22T05:48:00.700Z,159.5
2022-12-22T05:49:09.055Z,159.5
2022-12-22T05:50:17.414Z,159.5
2022-12-22T05:51:25.959Z,3.5
2022-12-22T05:52:34.301Z,3.5
2022-12-22T05:53:42.703Z,3.5
2022-12-22T05:54:51.237Z,2.9
2022-12-22T05:55:59.573Z,2.9
2022-12-22T05:57:07.923Z,2.9
2022-12-22T05:58:16.569Z,4.2
2022-12-22T05:59:24.913Z,4.2
2022-12-22T06:00:33.255Z,4.2
2022-12-22T06:01:41.923Z,4.6
2022-12-22T06:02:50.386Z,4.6
2022-12-22T06:04:00.538Z,4.6
2022-12-22T06:05:07.142Z,15.2
2022-12-22T06:06:15.538Z,15.2
2022-12-22T06:07:23.888Z,15.2
2022-12-22T06:08:32.450Z,8.3
2022-12-22T06:09:40.803Z,8.3
2022-12-22T06:10:49.148Z,8.3
2022-12-22T06:11:57.749Z,32.5
2022-12-22T06:13:06.120Z,32.5
2022-12-22T06:14:14.505Z,32.5
2022-12-22T06:15:23.086Z,20.1
2022-12-22T06:16:31.547Z,20.1
2022-12-22T06:17:44.576Z,20.1
2022-12-22T06:18:48.360Z,17.5
2022-12-22T06:19:56.741Z,17.5
2022-12-22T06:21:05.165Z,17.5
2022-12-22T06:22:13.691Z,20.5
2022-12-22T06:23:22.047Z,20.5
2022-12-22T06:24:30.403Z,20.5
2022-12-22T06:25:39.007Z,19.6
2022-12-22T06:26:47.359Z,19.6
2022-12-22T06:27:55.726Z,19.6
2022-12-22T06:29:04.290Z,29.700001
2022-12-22T06:30:12.673Z,29.700001
2022-12-22T06:31:21.049Z,29.700001
2022-12-22T06:32:29.578Z,35.599998
2022-12-22T06:33:37.924Z,35.599998
2022-12-22T06:34:46.273Z,35.599998
2022-12-22T06:35:58.776Z,37.400002
2022-12-22T06:37:03.234Z,37.400002
2022-12-22T06:38:11.667Z,37.400002
2022-12-22T06:39:20.219Z,22.700001
2022-12-22T06:40:28.599Z,22.700001
2022-12-22T06:41:36.940Z,22.700001
2022-12-22T06:42:45.519Z,17.6
2022-12-22T06:43:53.858Z,17.6
2022-12-22T06:45:02.205Z,17.6
2022-12-22T06:46:10.882Z,23.700001
2022-12-22T06:47:19.142Z,23.700001
2022-12-22T06:48:27.478Z,23.700001
2022-12-22T06:49:36.029Z,12.8
2022-12-22T06:50:44.382Z,12.8
2022-12-22T06:51:52.722Z,12.8
2022-12-22T06:53:01.260Z,14
2022-12-22T06:54:09.598Z,14
2022-12-22T06:55:17.971Z,14
2022-12-22T06:56:26.532Z,9
2022-12-22T06:57:34.879Z,9
2022-12-22T06:58:43.223Z,9
2022-12-22T06:59:57.180Z,10.8
2022-12-22T07:01:00.112Z,10.8
2022-12-22T07:02:08.649Z,10.8
2022-12-22T07:03:17.253Z,12.1
2022-12-22T07:04:25.398Z,12.1
2022-12-22T07:05:33.755Z,12.1
2022-12-22T07:06:42.326Z,48.5
2022-12-22T07:07:50.688Z,48.5
2022-12-22T07:08:59.038Z,48.5
2022-12-22T07:10:07.597Z,39.099998
2022-12-22T07:11:15.931Z,39.099998
2022-12-22T07:12:24.287Z,39.099998
2022-12-22T07:13:32.947Z,34.200001
2022-12-22T07:14:41.278Z,34.200001
2022-12-22T07:15:55.420Z,34.200001
2022-12-22T07:16:58.179Z,5.1
2022-12-22T07:18:06.547Z,5.1
2022-12-22T07:19:14.863Z,5.1
2022-12-22T07:20:23.419Z,5
2022-12-22T07:21:31.759Z,5
2022-12-22T07:22:40.174Z,5
2022-12-22T07:23:48.771Z,6.3
2022-12-22T07:24:57.136Z,6.3
2022-12-22T07:26:05.488Z,6.3
2022-12-22T07:27:14.055Z,4.9
2022-12-22T07:28:22.414Z,4.9
2022-12-22T07:29:30.807Z,4.9
2022-12-22T07:30:39.372Z,5.5
2022-12-22T07:31:47.878Z,5.5
2022-12-22T07:32:56.112Z,5.5
2022-12-22T07:34:04.719Z,4.6
2022-12-22T07:35:13.069Z,4.6
2022-12-22T07:36:21.478Z,4.6
2022-12-22T07:37:30.043Z,5.4
2022-12-22T07:38:38.395Z,5.4
2022-12-22T07:39:46.763Z,5.4
2022-12-22T07:40:58.272Z,5.3
2022-12-22T07:42:03.674Z,5.3
2022-12-22T07:43:12.032Z,5.3
2022-12-22T07:44:20.581Z,7.6
2022-12-22T07:45:28.912Z,7.6
2022-12-22T07:46:37.376Z,7.6
2022-12-22T07:47:45.867Z,5.7
2022-12-22T07:48:54.220Z,5.7
2022-12-22T07:50:02.618Z,5.7
2022-12-22T07:51:11.142Z,6.7
2022-12-22T07:52:19.492Z,6.7
2022-12-22T07:53:27.843Z,6.7
2022-12-22T07:54:41.329Z,8.8
2022-12-22T07:55:44.782Z,8.8
2022-12-22T07:56:53.144Z,8.8
2022-12-22T07:58:01.764Z,6.9
2022-12-22T07:59:10.098Z,6.9
2022-12-22T08:00:18.454Z,6.9
2022-12-22T08:01:27.119Z,5.6
2022-12-22T08:02:39.011Z,5.6
2022-12-22T08:03:43.732Z,5.6
2022-12-22T08:04:52.313Z,5.8
2022-12-22T08:06:00.689Z,5.8
2022-12-22T08:07:09.028Z,5.8
2022-12-22T08:08:17.601Z,6.2
2022-12-22T08:09:25.971Z,6.2
2022-12-22T08:10:34.323Z,6.2
2022-12-22T08:11:42.943Z,5.6
2022-12-22T08:12:51.327Z,5.6
2022-12-22T08:14:01.772Z,5.6
2022-12-22T08:15:08.188Z,4.6
2022-12-22T08:16:16.622Z,4.6
2022-12-22T08:17:24.902Z,4.6
2022-12-22T08:18:33.467Z,3.9
2022-12-22T08:19:41.833Z,3.9
2022-12-22T08:20:50.234Z,3.9
2022-12-22T08:21:58.824Z,4.9
2022-12-22T08:23:07.155Z,4.9
2022-12-22T08:24:15.520Z,4.9
2022-12-22T08:25:24.059Z,3.9
2022-12-22T08:26:32.438Z,3.9
2022-12-22T08:27:40.799Z,3.9
2022-12-22T08:28:49.375Z,9.6
2022-12-22T08:29:57.720Z,9.6
2022-12-22T08:31:06.144Z,9.6
2022-12-22T08:32:14.685Z,10.6
2022-12-22T08:33:23.064Z,10.6
2022-12-22T08:34:31.423Z,10.6
2022-12-22T08:35:39.989Z,3.8
2022-12-22T08:36:48.356Z,3.8
2022-12-22T08:37:56.732Z,3.8
2022-12-22T08:39:05.267Z,3.2
2022-12-22T08:40:13.638Z,3.2
2022-12-22T08:41:21.999Z,3.2
2022-12-22T08:42:30.559Z,2.5
2022-12-22T08:43:38.913Z,2.5
2022-12-22T08:44:47.282Z,2.5
2022-12-22T08:45:55.823Z,2.9
2022-12-22T08:47:04.267Z,2.9
2022-12-22T08:48:12.592Z,2.9
2022-12-22T08:49:21.142Z,4.6
2022-12-22T08:50:29.515Z,4.6
2022-12-22T08:51:37.895Z,4.6
2022-12-22T08:52:46.457Z,2.3
2022-12-22T08:54:09.938Z,2.3
2022-12-22T08:55:03.184Z,2.3
2022-12-22T08:56:11.777Z,1.2
2022-12-22T08:57:20.120Z,1.2
2022-12-22T08:58:28.499Z,1.2
2022-12-22T08:59:37.024Z,1.9
2022-12-22T09:00:45.390Z,1.9
2022-12-22T09:01:53.908Z,1.9
2022-12-22T09:03:02.396Z,1.9
2022-12-22T09:04:10.656Z,1.9
2022-12-22T09:05:19.036Z,1.9
2022-12-22T09:06:28.930Z,2.4
2022-12-22T09:07:35.955Z,2.4
2022-12-22T09:08:44.384Z,2.4
2022-12-22T09:09:52.935Z,1.3
2022-12-22T09:11:01.284Z,1.3
2022-12-22T09:12:09.627Z,1.3
2022-12-22T09:13:18.196Z,1.8
2022-12-22T09:14:26.534Z,1.8
2022-12-22T09:15:34.881Z,1.8
2022-12-22T09:16:43.461Z,0.9
2022-12-22T09:17:51.788Z,0.9
2022-12-22T09:19:00.147Z,0.9
2022-12-22T09:20:08.703Z,6
2022-12-22T09:21:17.077Z,6
2022-12-22T09:22:28.011Z,6
2022-12-22T09:23:33.998Z,1.8
2022-12-22T09:24:42.354Z,1.8
2022-12-22T09:25:50.732Z,1.8
2022-12-22T09:26:59.269Z,1.5
2022-12-22T09:28:07.611Z,1.5
2022-12-22T09:29:16.097Z,1.5
2022-12-22T09:30:24.496Z,0.9
2022-12-22T09:31:32.956Z,0.9
2022-12-22T09:32:41.271Z,0.9
2022-12-22T09:33:49.848Z,1.9
2022-12-22T09:34:58.180Z,1.9
2022-12-22T09:36:06.532Z,1.9
2022-12-22T09:37:15.107Z,2.4
2022-12-22T09:38:23.450Z,2.4
2022-12-22T09:39:31.783Z,2.4
2022-12-22T09:40:40.342Z,2.6
2022-12-22T09:41:48.739Z,2.6
2022-12-22T09:42:57.047Z,2.6
2022-12-22T09:44:05.605Z,3.1
2022-12-22T09:45:17.108Z,3.1
2022-12-22T09:46:22.490Z,3.1
2022-12-22T09:47:30.908Z,3.6
2022-12-22T09:48:39.251Z,3.6
2022-12-22T09:49:47.596Z,3.6
2022-12-22T09:50:56.141Z,3.2
2022-12-22T09:52:04.501Z,3.2
2022-12-22T09:53:12.845Z,3.2
2022-12-22T09:54:21.438Z,3.2
2022-12-22T09:55:29.798Z,3.2
2022-12-22T09:56:38.146Z,3.2
2022-12-22T09:57:46.719Z,2.8
2022-12-22T09:58:55.068Z,2.8
2022-12-22T10:00:03.484Z,2.8
2022-12-22T10:01:12.114Z,2.5
2022-12-22T10:02:20.435Z,2.5
2022-12-22T10:03:28.794Z,2.5
2022-12-22T10:04:37.313Z,4.6
2022-12-22T10:05:45.677Z,4.6
2022-12-22T10:06:54.060Z,4.6
2022-12-22T10:08:02.632Z,3.2
2022-12-22T10:09:36.155Z,3.2
2022-12-22T10:10:19.378Z,3.2
2022-12-22T10:11:27.911Z,2.9
2022-12-22T10:12:36.234Z,2.9
2022-12-22T10:13:44.614Z,2.9
2022-12-22T10:14:53.128Z,2.8
2022-12-22T10:16:01.464Z,2.8
2022-12-22T10:17:09.899Z,2.8
2022-12-22T10:18:18.455Z,3.3
2022-12-22T10:19:26.773Z,3.3
2022-12-22T10:20:35.122Z,3.3
2022-12-22T10:21:46.816Z,4
2022-12-22T10:22:52.028Z,4
2022-12-22T10:24:00.391Z,4
2022-12-22T10:25:08.946Z,2.6
2022-12-22T10:26:27.815Z,2.6
2022-12-22T10:27:28.832Z,2.6
2022-12-22T10:28:34.253Z,2.8
2022-12-22T10:29:42.640Z,2.8
2022-12-22T10:30:50.957Z,2.8
2022-12-22T10:31:59.597Z,4.4
2022-12-22T10:33:08.078Z,4.4
2022-12-22T10:34:16.427Z,4.4
2022-12-22T10:35:25.039Z,3.7
2022-12-22T10:36:33.383Z,3.7
2022-12-22T10:37:41.839Z,3.7
2022-12-22T10:38:50.302Z,3
2022-12-22T10:39:58.671Z,3
2022-12-22T10:41:07.036Z,3
2022-12-22T10:42:15.610Z,3.2
2022-12-22T10:43:23.982Z,3.2
2022-12-22T10:44:32.327Z,3.2
2022-12-22T10:45:40.912Z,2
2022-12-22T10:46:49.240Z,2
2022-12-22T10:47:57.756Z,2
2022-12-22T10:49:06.135Z,1.4
2022-12-22T10:50:14.492Z,1.4
2022-12-22T10:51:22.867Z,1.4
2022-12-22T10:52:32.074Z,2.1
2022-12-22T10:53:39.754Z,2.1
2022-12-22T10:54:48.097Z,2.1
2022-12-22T10:55:56.638Z,3
2022-12-22T10:57:05.016Z,3
2022-12-22T10:58:13.360Z,3
2022-12-22T10:59:21.912Z,2.8
2022-12-22T11:00:30.308Z,2.8
2022-12-22T11:01:38.817Z,2.8
2022-12-22T11:02:47.299Z,2
2022-12-22T11:03:55.566Z,2
2022-12-22T11:05:03.853Z,2
2022-12-22T11:06:12.424Z,2.6
2022-12-22T11:07:20.869Z,2.6
2022-12-22T11:08:29.124Z,2.6
2022-12-22T11:09:37.700Z,4.5
2022-12-22T11:10:46.046Z,4.5
2022-12-22T11:11:54.402Z,4.5
2022-12-22T11:13:02.951Z,3.7
2022-12-22T11:14:11.311Z,3.7
2022-12-22T11:15:24.157Z,3.7
2022-12-22T11:16:28.244Z,3.1
2022-12-22T11:17:36.695Z,3.1
2022-12-22T11:18:44.891Z,3.1
2022-12-22T11:19:53.435Z,2.3
2022-12-22T11:21:01.795Z,2.3
2022-12-22T11:22:10.149Z,2.3
2022-12-22T11:23:18.704Z,3.2
2022-12-22T11:24:27.045Z,3.2
2022-12-22T11:25:35.404Z,3.2
2022-12-22T11:26:43.962Z,1.8
2022-12-22T11:27:52.333Z,1.8
2022-12-22T11:29:00.666Z,1.8
2022-12-22T11:30:09.219Z,2.8
2022-12-22T11:31:17.619Z,2.8
2022-12-22T11:32:25.936Z,2.8
2022-12-22T11:33:34.523Z,2.3
2022-12-22T11:34:42.846Z,2.3
2022-12-22T11:35:51.191Z,2.3
2022-12-22T11:36:59.754Z,3
2022-12-22T11:38:11.076Z,3
2022-12-22T11:39:29.529Z,3
2022-12-22T11:40:38.084Z,2.4
2022-12-22T11:41:46.423Z,2.4
2022-12-22T11:42:54.744Z,2.4
2022-12-22T11:44:03.302Z,3.2
2022-12-22T11:45:11.647Z,3.2
2022-12-22T11:46:20.048Z,3.2
2022-12-22T11:47:30.317Z,1.8
2022-12-22T11:48:38.664Z,1.8
2022-12-22T11:49:46.989Z,1.8
2022-12-22T11:50:57.878Z,1.7
2022-12-22T11:52:04.618Z,1.7
2022-12-22T11:53:12.953Z,1.7
2022-12-22T11:54:21.500Z,10.7
2022-12-22T11:55:29.845Z,10.7
2022-12-22T11:56:38.209Z,10.7
2022-12-22T11:57:47.062Z,2
2022-12-22T11:58:55.347Z,2
2022-12-22T12:00:03.701Z,2
2022-12-22T12:01:16.495Z,2
2022-12-22T12:02:20.737Z,2
2022-12-22T12:03:29.022Z,2
2022-12-22T12:04:37.543Z,3
2022-12-22T12:05:45.803Z,3
2022-12-22T12:06:54.167Z,3
2022-12-22T12:08:02.717Z,1.6
2022-12-22T12:09:11.059Z,1.6
2022-12-22T12:10:19.436Z,1.6
2022-12-22T12:11:28.028Z,3.4
2022-12-22T12:12:36.417Z,3.4
2022-12-22T12:13:44.744Z,3.4
2022-12-22T12:14:53.335Z,2.7
2022-12-22T12:16:01.806Z,2.7
2022-12-22T12:17:10.078Z,2.7
2022-12-22T12:18:18.663Z,1.8
2022-12-22T12:19:28.442Z,1.8
2022-12-22T12:20:35.399Z,1.8
2022-12-22T12:21:43.976Z,1.3
2022-12-22T12:22:52.300Z,1.3
2022-12-22T12:24:00.664Z,1.3
2022-12-22T12:25:09.226Z,1.3
2022-12-22T12:26:17.595Z,1.3
2022-12-22T12:27:25.932Z,1.3
2022-12-22T12:28:34.483Z,2.9
2022-12-22T12:29:42.839Z,2.9
2022-12-22T12:30:51.306Z,2.9
2022-12-22T12:31:59.854Z,1.5
2022-12-22T12:33:08.187Z,1.5
2022-12-22T12:34:16.553Z,1.5
2022-12-22T12:35:25.087Z,4.6
2022-12-22T12:36:33.496Z,4.6
2022-12-22T12:37:41.855Z,4.6
2022-12-22T12:39:07.756Z,2.7
2022-12-22T12:39:58.779Z,2.7
2022-12-22T12:41:07.127Z,2.7
2022-12-22T12:42:15.730Z,1.8
2022-12-22T12:43:24.064Z,1.8
2022-12-22T12:44:32.470Z,1.8
2022-12-22T12:45:41.004Z,1.7
2022-12-22T12:46:49.450Z,1.7
2022-12-22T12:47:57.732Z,1.7
2022-12-22T12:49:06.284Z,2.7
2022-12-22T12:50:14.692Z,2.7
2022-12-22T12:51:23.051Z,2.7
2022-12-22T12:52:31.616Z,1.4
2022-12-22T12:53:39.930Z,1.4
2022-12-22T12:54:48.335Z,1.4
2022-12-22T12:55:56.892Z,1.2
2022-12-22T12:57:05.233Z,1.2
2022-12-22T12:58:13.617Z,1.2
2022-12-22T12:59:22.197Z,2.8
2022-12-22T13:00:30.584Z,2.8
2022-12-22T13:01:39.143Z,2.8
2022-12-22T13:02:47.599Z,1
2022-12-22T13:04:04.890Z,1
2022-12-22T13:05:04.267Z,1
2022-12-22T13:06:12.846Z,1.2
2022-12-22T13:07:21.209Z,1.2
2022-12-22T13:08:29.586Z,1.2
2022-12-22T13:09:53.529Z,0.9
2022-12-22T13:10:46.480Z,0.9
2022-12-22T13:12:12.043Z,0.9
2022-12-22T13:13:03.407Z,1.8
2022-12-22T13:14:11.786Z,1.8
2022-12-22T13:15:20.090Z,1.8
2022-12-22T13:16:28.707Z,1.3
2022-12-22T13:17:37.085Z,1.3
2022-12-22T13:18:49.705Z,1.3
2022-12-22T13:19:53.929Z,1.3
2022-12-22T13:21:34.117Z,1.3
2022-12-22T13:22:10.653Z,1.3
2022-12-22T13:23:19.210Z,1.8
2022-12-22T13:24:28.498Z,1.8
2022-12-22T13:25:35.938Z,1.8
2022-12-22T13:26:44.508Z,1.3
2022-12-22T13:27:52.880Z,1.3
2022-12-22T13:29:01.253Z,1.3
2022-12-22T13:30:12.988Z,1.5
2022-12-22T13:31:18.274Z,1.5
2022-12-22T13:32:26.564Z,1.5
2022-12-22T13:33:35.163Z,2.2
2022-12-22T13:35:04.775Z,2.2
2022-12-22T13:35:56.683Z,2.2
2022-12-22T13:37:00.456Z,2.1
2022-12-22T13:38:08.811Z,2.1
2022-12-22T13:39:17.220Z,2.1
2022-12-22T13:40:25.823Z,1.9
2022-12-22T13:41:34.181Z,1.9
2022-12-22T13:42:42.546Z,1.9
2022-12-22T13:43:51.075Z,2.7
2022-12-22T13:44:59.446Z,2.7
2022-12-22T13:46:07.809Z,2.7
2022-12-22T13:47:16.452Z,1.7
2022-12-22T13:48:24.739Z,1.7
2022-12-22T13:50:41.699Z,1.1
2022-12-22T13:51:50.108Z,1.1
2022-12-22T13:52:58.450Z,1.1
2022-12-22T13:54:08.900Z,1.1
2022-12-22T13:55:15.385Z,1.1
2022-12-22T13:56:23.770Z,1.1
2022-12-22T13:57:32.344Z,2.2
2022-12-22T13:58:40.678Z,2.2
2022-12-22T13:59:49.068Z,2.2
2022-12-22T14:00:57.688Z,1.9
2022-12-22T14:02:06.168Z,1.9
2022-12-22T14:03:27.605Z,1.9
2022-12-22T14:04:23.153Z,1
2022-12-22T14:05:31.410Z,1
2022-12-22T14:06:39.854Z,1
2022-12-22T14:07:48.420Z,1.4
2022-12-22T14:08:56.794Z,1.4
2022-12-22T14:10:05.253Z,1.4
2022-12-22T14:11:13.692Z,4.4
2022-12-22T14:12:22.058Z,4.4
2022-12-22T14:13:30.395Z,4.4
2022-12-22T14:14:38.990Z,5
2022-12-22T14:15:47.346Z,5
2022-12-22T14:16:55.820Z,5
2022-12-22T14:18:04.283Z,2.5
2022-12-22T14:19:12.691Z,2.5
2022-12-22T14:20:21.041Z,2.5
2022-12-22T14:21:29.667Z,8.3
2022-12-22T14:22:38.048Z,8.3
2022-12-22T14:23:46.455Z,8.3
2022-12-22T14:24:55.030Z,5.3
2022-12-22T14:26:03.370Z,5.3
2022-12-22T14:27:11.770Z,5.3
2022-12-22T14:28:20.334Z,2.6
2022-12-22T14:29:28.669Z,2.6
2022-12-22T14:30:38.719Z,2.6
2022-12-22T15:04:33.655Z,0
2022-12-22T15:05:41.967Z,0
2022-12-22T15:06:50.332Z,0
2022-12-22T15:08:08.228Z,1.1
2022-12-22T15:09:07.273Z,1.1
2022-12-22T15:10:16.793Z,1.1
2022-12-22T15:11:24.175Z,1
2022-12-22T15:12:32.501Z,1
2022-12-22T15:13:40.851Z,1
2022-12-22T15:14:49.440Z,1.5
2022-12-22T15:15:57.755Z,1.5
2022-12-22T15:17:06.189Z,1.5
2022-12-22T15:18:14.700Z,1.3
2022-12-22T15:19:23.026Z,1.3
2022-12-22T15:20:38.681Z,1.3
2022-12-22T15:21:39.962Z,1.5
2022-12-22T15:22:48.287Z,1.5
2022-12-22T15:23:56.641Z,1.5
2022-12-22T15:25:05.212Z,1.6
2022-12-22T15:26:13.555Z,1.6
2022-12-22T15:27:21.910Z,1.6
2022-12-22T15:28:30.475Z,1.5
2022-12-22T15:29:38.812Z,1.5
2022-12-22T15:30:47.225Z,1.5
2022-12-22T15:31:55.742Z,2.9
2022-12-22T15:33:04.109Z,2.9
2022-12-22T15:34:12.496Z,2.9
2022-12-22T15:35:21.042Z,1.2
2022-12-22T15:36:29.445Z,1.2
2022-12-22T15:37:37.772Z,1.2
2022-12-22T15:38:46.361Z,1.4
2022-12-22T15:39:54.660Z,1.4
2022-12-22T15:41:02.977Z,1.4
2022-12-22T15:42:11.517Z,2.3
2022-12-22T15:43:55.465Z,2.3
2022-12-22T15:44:31.048Z,2.3
2022-12-22T15:45:36.710Z,1.7
2022-12-22T15:46:45.108Z,1.7
2022-12-22T15:47:53.358Z,1.7
2022-12-22T15:49:01.908Z,1.4
2022-12-22T15:50:10.240Z,1.4
2022-12-22T15:51:18.599Z,1.4
2022-12-22T15:52:27.151Z,1.8
2022-12-22T15:53:35.475Z,1.8
2022-12-22T15:54:43.801Z,1.8
2022-12-22T15:55:52.348Z,2
2022-12-22T15:57:00.676Z,2
2022-12-22T15:58:08.996Z,2
2022-12-22T15:59:17.527Z,2.3
2022-12-22T16:00:25.868Z,2.3
2022-12-22T16:01:34.231Z,2.3
2022-12-22T16:02:42.965Z,8.7
2022-12-22T16:03:51.100Z,8.7
2022-12-22T16:04:59.343Z,8.7
2022-12-22T16:06:07.850Z,1.9
2022-12-22T16:07:16.183Z,1.9
2022-12-22T16:08:24.550Z,1.9
2022-12-22T16:09:33.019Z,2.1
2022-12-22T16:10:41.343Z,2.1
2022-12-22T16:11:49.671Z,2.1
2022-12-22T16:12:58.222Z,1.5